Time;durP1;ratioP1;P1;durP2;ratioP2;P2;SDS_P1;SDS_P2;PMS_P1;PMS_P2;Temp;Humidity;BMP_temperature;BMP_pressure;BME280_temperature;BME280_humidity;BME280_pressure;Samples;Min_cycle;Max_cycle;Signal;HPM_P1;HPM_P2
2021/04/04 00:00:33;;;;;;;15.25;5.53;;;;;;;;;;5061394;28;20480;-58
2021/04/04 00:02:59;;;;;;;15.13;5.68;;;;;;;;;;5059301;28;20025;-58
2021/04/04 00:05:25;;;;;;;11.95;4.72;;;;;;;;;;5068049;28;20044;-58
2021/04/04 00:07:53;;;;;;;12.07;5.07;;;;;;;;;;5063247;28;20036;-58
2021/04/04 00:10:19;;;;;;;15.93;5.55;;;;;;;;;;5061746;28;20488;-59
2021/04/04 00:12:46;;;;;;;10.80;4.97;;;;;;;;;;5059616;28;20057;-58
2021/04/04 00:15:14;;;;;;;10.85;5.03;;;;;;;;;;5048227;28;20420;-58
2021/04/04 00:17:40;;;;;;;;;;;;;;;;;;5062472;28;20135;-58
2021/04/04 00:20:08;;;;;;;12.43;5.05;;;;;;;;;;5062840;28;19924;-58
2021/04/04 00:22:34;;;;;;;10.63;4.82;;;;;;;;;;5063173;28;20132;-58
2021/04/04 00:25:00;;;;;;;12.73;4.50;;;;;;;;;;5059536;28;20462;-58
2021/04/04 00:27:27;;;;;;;14.88;3.80;;;;;;;;;;5060324;28;20052;-58
2021/04/04 00:29:53;;;;;;;13.25;5.50;;;;;;;;;;5062475;28;20148;-58
2021/04/04 00:32:19;;;;;;;12.63;5.25;;;;;;;;;;5047130;28;20059;-59
2021/04/04 00:34:46;;;;;;;13.88;5.22;;;;;;;;;;5068685;28;20040;-58
2021/04/04 00:37:12;;;;;;;10.27;5.03;;;;;;;;;;5065107;28;20128;-58
2021/04/04 00:39:38;;;;;;;12.60;4.78;;;;;;;;;;5065096;28;20075;-59
2021/04/04 00:42:04;;;;;;;13.05;4.93;;;;;;;;;;5066228;28;20052;-58
2021/04/04 00:44:31;;;;;;;13.00;5.25;;;;;;;;;;5065774;28;20048;-58
2021/04/04 00:46:57;;;;;;;13.07;5.47;;;;;;;;;;5065105;28;20130;-58
2021/04/04 00:49:23;;;;;;;16.38;5.43;;;;;;;;;;5070080;28;20045;-59
2021/04/04 00:51:50;;;;;;;12.40;4.82;;;;;;;;;;5070074;28;20041;-58
2021/04/04 00:54:19;;;;;;;16.25;4.53;;;;;;;;;;5049301;28;20124;-59
2021/04/04 00:56:45;;;;;;;14.25;4.85;;;;;;;;;;5067298;28;20523;-58
2021/04/04 00:59:12;;;;;;;14.40;4.63;;;;;;;;;;5068242;28;20446;-59
2021/04/04 01:01:38;;;;;;;13.25;4.47;;;;;;;;;;5066651;28;20782;-58
2021/04/04 01:04:05;;;;;;;12.63;3.78;;;;;;;;;;5068907;28;20412;-58
2021/04/04 01:06:31;;;;;;;17.92;4.65;;;;;;;;;;5064970;28;20480;-58
2021/04/04 01:08:57;;;;;;;15.40;4.38;;;;;;;;;;5065598;28;20037;-58
2021/04/04 01:11:41;;;;;;;15.20;4.57;;;;;;;;;;5067009;28;20055;-58
2021/04/04 01:14:15;;;;;;;15.52;4.43;;;;;;;;;;5067393;28;20106;-58
2021/04/04 01:16:46;;;;;;;10.98;4.45;;;;;;;;;;5067028;28;20054;-58
2021/04/04 01:19:36;;;;;;;9.15;3.92;;;;;;;;;;5069084;28;20033;-59
2021/04/04 01:22:21;;;;;;;16.75;4.30;;;;;;;;;;5030135;28;20056;-57
2021/04/04 01:24:53;;;;;;;7.50;4.13;;;;;;;;;;5067126;28;20054;-58
2021/04/04 01:27:24;;;;;;;17.77;5.57;;;;;;;;;;5069560;28;20126;-58
2021/04/04 01:29:51;;;;;;;12.15;4.07;;;;;;;;;;5066553;28;20102;-58
2021/04/04 01:32:18;;;;;;;10.13;3.08;;;;;;;;;;5064850;28;20136;-58
2021/04/04 01:34:44;;;;;;;13.52;3.88;;;;;;;;;;5069943;28;20075;-58
2021/04/04 01:37:13;;;;;;;16.17;4.22;;;;;;;;;;5067803;28;20113;-58
2021/04/04 01:39:48;;;;;;;7.88;4.07;;;;;;;;;;5068604;28;20079;-58
2021/04/04 01:42:15;;;;;;;13.80;3.78;;;;;;;;;;5062810;28;20047;-58
2021/04/04 01:44:42;;;;;;;9.27;3.60;;;;;;;;;;5063474;28;20460;-59
2021/04/04 01:47:10;;;;;;;10.57;4.05;;;;;;;;;;5061085;28;20116;-58
2021/04/04 01:49:38;;;;;;;12.07;3.45;;;;;;;;;;5067329;28;20044;-58
2021/04/04 01:52:04;;;;;;;14.30;3.50;;;;;;;;;;5065747;28;20049;-58
2021/04/04 01:54:31;;;;;;;11.40;3.30;;;;;;;;;;5061950;28;20040;-58
2021/04/04 01:56:58;;;;;;;8.32;3.47;;;;;;;;;;5063721;28;20136;-59
2021/04/04 01:59:25;;;;;;;15.55;3.35;;;;;;;;;;5064477;28;20097;-59
2021/04/04 02:01:52;;;;;;;11.05;2.50;;;;;;;;;;5064139;28;20049;-58
2021/04/04 02:04:18;;;;;;;10.25;3.03;;;;;;;;;;5068146;28;20044;-58
2021/04/04 02:06:45;;;;;;;9.63;2.95;;;;;;;;;;5065474;28;20097;-58
2021/04/04 02:09:13;;;;;;;10.10;3.13;;;;;;;;;;5061220;28;20037;-58
2021/04/04 02:11:41;;;;;;;9.80;3.60;;;;;;;;;;5068423;28;20067;-58
2021/04/04 02:14:10;;;;;;;9.05;3.85;;;;;;;;;;5063259;28;20032;-58
2021/04/04 02:16:37;;;;;;;9.52;3.08;;;;;;;;;;5066412;28;20056;-58
2021/04/04 02:19:05;;;;;;;12.90;3.47;;;;;;;;;;5066439;28;20039;-58
2021/04/04 02:21:32;;;;;;;11.15;3.08;;;;;;;;;;5059561;28;20048;-58
2021/04/04 02:23:59;;;;;;;15.45;3.67;;;;;;;;;;5062636;28;20032;-58
2021/04/04 02:26:28;;;;;;;9.30;3.53;;;;;;;;;;5067276;28;20059;-58
2021/04/04 02:28:54;;;;;;;8.40;3.25;;;;;;;;;;5065636;28;20061;-58
2021/04/04 02:31:20;;;;;;;8.90;3.35;;;;;;;;;;5061767;28;20455;-58
2021/04/04 02:33:49;;;;;;;8.02;2.92;;;;;;;;;;5065579;28;20086;-59
2021/04/04 02:36:15;;;;;;;8.05;3.00;;;;;;;;;;5063509;28;20569;-59
2021/04/04 02:38:47;;;;;;;11.38;3.50;;;;;;;;;;5067741;28;20545;-58
2021/04/04 02:41:14;;;;;;;10.02;2.90;;;;;;;;;;5066185;28;20047;-58
2021/04/04 02:43:41;;;;;;;7.95;3.08;;;;;;;;;;5064378;28;20048;-58
2021/04/04 02:46:11;;;;;;;11.68;3.08;;;;;;;;;;5068261;28;20068;-59
2021/04/04 02:48:58;;;;;;;8.13;3.63;;;;;;;;;;5060056;28;20087;-58
2021/04/04 02:51:27;;;;;;;9.30;3.13;;;;;;;;;;5059253;28;20028;-58
2021/04/04 02:53:54;;;;;;;8.82;3.10;;;;;;;;;;5067875;28;20067;-59
2021/04/04 02:56:21;;;;;;;13.10;3.42;;;;;;;;;;5068833;28;20554;-58
2021/04/04 02:58:49;;;;;;;12.85;3.35;;;;;;;;;;5060835;28;20494;-58
2021/04/04 03:01:16;;;;;;;12.73;3.60;;;;;;;;;;5061051;28;20124;-56
2021/04/04 03:03:43;;;;;;;8.18;2.85;;;;;;;;;;5063170;28;20045;-58
2021/04/04 03:06:10;;;;;;;8.13;2.92;;;;;;;;;;5065848;28;20057;-58
2021/04/04 03:08:41;;;;;;;9.43;3.60;;;;;;;;;;5061779;28;20072;-58
2021/04/04 03:11:08;;;;;;;9.45;3.30;;;;;;;;;;5068904;28;20040;-59
2021/04/04 03:13:34;;;;;;;8.10;2.47;;;;;;;;;;5059921;28;20079;-59
2021/04/04 03:16:02;;;;;;;9.33;3.40;;;;;;;;;;5064266;28;20054;-57
2021/04/04 03:18:30;;;;;;;10.40;3.63;;;;;;;;;;5066599;28;20046;-58
2021/04/04 03:21:00;;;;;;;14.13;3.33;;;;;;;;;;5062442;28;20049;-58
2021/04/04 03:23:28;;;;;;;18.05;4.10;;;;;;;;;;5060683;28;20060;-58
2021/04/04 03:25:54;;;;;;;10.00;3.85;;;;;;;;;;5063135;28;20071;-59
2021/04/04 03:28:21;;;;;;;13.20;4.20;;;;;;;;;;5057621;28;20044;-57
2021/04/04 03:30:47;;;;;;;13.20;3.93;;;;;;;;;;5066949;28;20287;-58
2021/04/04 03:33:18;;;;;;;10.90;3.60;;;;;;;;;;5065628;28;20295;-58
2021/04/04 03:35:45;;;;;;;12.45;4.20;;;;;;;;;;5061633;28;20492;-58
2021/04/04 03:38:13;;;;;;;12.38;3.05;;;;;;;;;;5064224;28;20128;-58
2021/04/04 03:40:39;;;;;;;16.42;3.97;;;;;;;;;;5062391;28;20045;-58
2021/04/04 03:43:09;;;;;;;15.27;3.38;;;;;;;;;;5055528;28;20041;-59
2021/04/04 03:45:35;;;;;;;13.05;3.80;;;;;;;;;;5065537;28;20059;-58
2021/04/04 03:48:02;;;;;;;19.45;4.72;;;;;;;;;;5059386;28;20091;-58
2021/04/04 03:50:29;;;;;;;14.75;3.00;;;;;;;;;;5061146;28;20728;-59
2021/04/04 03:52:55;;;;;;;15.13;3.83;;;;;;;;;;5064862;28;20136;-58
2021/04/04 03:55:23;;;;;;;14.07;2.92;;;;;;;;;;5064706;28;20772;-58
2021/04/04 03:57:50;;;;;;;16.33;4.00;;;;;;;;;;5063105;28;20385;-59
2021/04/04 04:00:19;;;;;;;8.15;2.95;;;;;;;;;;5064216;28;20516;-58
2021/04/04 04:02:46;;;;;;;13.52;3.80;;;;;;;;;;5063696;28;20094;-58
2021/04/04 04:05:13;;;;;;;16.45;4.38;;;;;;;;;;5065123;28;20087;-59
2021/04/04 04:07:39;;;;;;;12.75;4.10;;;;;;;;;;5060926;28;20124;-58
2021/04/04 04:10:06;;;;;;;22.23;4.88;;;;;;;;;;5062648;28;20172;-58
2021/04/04 04:12:33;;;;;;;15.80;3.58;;;;;;;;;;5059780;28;20055;-58
2021/04/04 04:15:00;;;;;;;20.38;4.53;;;;;;;;;;5059840;28;20037;-58
2021/04/04 04:17:26;;;;;;;21.30;5.55;;;;;;;;;;5065385;28;20041;-58
2021/04/04 04:19:53;;;;;;;16.92;4.60;;;;;;;;;;5060378;28;20493;-59
2021/04/04 04:22:20;;;;;;;21.27;4.40;;;;;;;;;;5065676;28;20573;-58
2021/04/04 04:24:48;;;;;;;22.17;5.50;;;;;;;;;;5065436;28;20037;-58
2021/04/04 04:27:15;;;;;;;23.52;5.47;;;;;;;;;;5064004;28;20056;-58
2021/04/04 04:29:44;;;;;;;21.10;4.80;;;;;;;;;;5061020;28;20124;-58
2021/04/04 04:32:11;;;;;;;31.15;5.68;;;;;;;;;;5062577;28;20051;-58
2021/04/04 04:34:39;;;;;;;13.60;5.40;;;;;;;;;;5060969;28;20048;-58
2021/04/04 04:37:06;;;;;;;21.27;6.13;;;;;;;;;;5061347;28;20298;-58
2021/04/04 04:39:32;;;;;;;20.30;5.18;;;;;;;;;;5060985;28;20488;-58
2021/04/04 04:41:58;;;;;;;23.65;6.15;;;;;;;;;;5057062;28;20397;-59
2021/04/04 04:44:27;;;;;;;26.20;6.50;;;;;;;;;;5064615;28;21011;-58
2021/04/04 04:46:54;;;;;;;23.85;6.38;;;;;;;;;;5061378;28;20455;-58
2021/04/04 04:49:20;;;;;;;25.15;6.63;;;;;;;;;;5060906;28;20040;-58
2021/04/04 04:51:48;;;;;;;19.33;6.23;;;;;;;;;;5061013;28;20041;-57
2021/04/04 04:54:15;;;;;;;26.48;7.75;;;;;;;;;;5061913;28;20041;-58
2021/04/04 04:56:42;;;;;;;28.65;7.50;;;;;;;;;;5065327;28;20419;-58
2021/04/04 04:59:08;;;;;;;15.32;5.18;;;;;;;;;;5061820;28;20163;-58
2021/04/04 05:01:40;;;;;;;37.08;8.68;;;;;;;;;;5064694;28;20315;-58
2021/04/04 05:04:07;;;;;;;26.63;8.32;;;;;;;;;;5067025;28;20049;-58
2021/04/04 05:06:34;;;;;;;37.33;8.70;;;;;;;;;;5060981;28;20051;-58
2021/04/04 05:09:01;;;;;;;31.77;9.73;;;;;;;;;;5060104;28;20068;-58
2021/04/04 05:11:28;;;;;;;26.58;7.25;;;;;;;;;;5063418;28;20106;-58
2021/04/04 05:13:54;;;;;;;37.10;9.80;;;;;;;;;;5061413;28;20064;-59
2021/04/04 05:16:20;;;;;;;36.67;9.85;;;;;;;;;;5064452;28;20036;-59
2021/04/04 05:18:48;;;;;;;35.08;9.93;;;;;;;;;;5064374;28;20238;-58
2021/04/04 05:21:24;;;;;;;36.38;10.90;;;;;;;;;;5061578;28;20094;-58
2021/04/04 05:23:57;;;;;;;34.53;9.77;;;;;;;;;;5062090;28;20048;-58
2021/04/04 05:26:27;;;;;;;40.95;13.32;;;;;;;;;;5063772;28;20075;-59
2021/04/04 05:28:54;;;;;;;36.28;12.43;;;;;;;;;;5061506;28;20136;-59
2021/04/04 05:31:20;;;;;;;35.78;11.68;;;;;;;;;;5070667;28;20064;-59
2021/04/04 05:33:46;;;;;;;51.95;13.55;;;;;;;;;;5064987;28;20036;-59
2021/04/04 05:36:13;;;;;;;43.90;12.48;;;;;;;;;;5063464;28;20041;-59
2021/04/04 05:38:39;;;;;;;34.63;11.60;;;;;;;;;;5064181;28;20040;-59
2021/04/04 05:41:05;;;;;;;45.78;13.73;;;;;;;;;;5068760;28;20037;-59
2021/04/04 05:43:40;;;;;;;49.17;13.40;;;;;;;;;;5064057;28;20052;-59
2021/04/04 05:46:09;;;;;;;37.70;12.82;;;;;;;;;;5060726;28;20043;-59
2021/04/04 05:48:57;;;;;;;42.90;13.00;;;;;;;;;;5064488;28;20120;-59
2021/04/04 05:51:32;;;;;;;39.28;11.15;;;;;;;;;;5066412;28;20065;-59
2021/04/04 05:54:14;;;;;;;43.72;13.32;;;;;;;;;;5052651;28;20121;-59
2021/04/04 05:56:41;;;;;;;45.13;13.48;;;;;;;;;;5069080;28;20048;-59
2021/04/04 05:59:11;;;;;;;42.72;12.27;;;;;;;;;;5067387;28;20032;-59
2021/04/04 06:01:58;;;;;;;56.80;13.43;;;;;;;;;;5069510;28;20431;-59
2021/04/04 06:04:24;;;;;;;40.95;12.50;;;;;;;;;;5059869;28;20065;-59
2021/04/04 06:06:57;;;;;;;42.05;12.00;;;;;;;;;;5060425;28;20053;-59
2021/04/04 06:09:42;;;;;;;54.75;13.95;;;;;;;;;;5065808;28;20055;-59
2021/04/04 06:12:18;;;;;;;44.90;12.88;;;;;;;;;;5061262;28;20057;-59
2021/04/04 06:14:58;;;;;;;41.65;12.95;;;;;;;;;;5066194;28;20045;-59
2021/04/04 06:17:27;;;;;;;41.03;11.05;;;;;;;;;;5068903;28;20132;-59
2021/04/04 06:20:08;;;;;;;49.03;12.90;;;;;;;;;;5066515;28;20119;-58
2021/04/04 06:22:38;;;;;;;43.72;11.35;;;;;;;;;;5064347;28;20049;-59
2021/04/04 06:25:08;;;;;;;46.10;11.18;;;;;;;;;;5068962;28;20028;-59
2021/04/04 06:27:43;;;;;;;41.00;13.05;;;;;;;;;;5069651;28;20061;-59
2021/04/04 06:30:20;;;;;;;38.25;12.93;;;;;;;;;;5060061;28;20515;-59
2021/04/04 06:33:02;;;;;;;40.50;12.43;;;;;;;;;;5067501;28;20049;-59
2021/04/04 06:35:40;;;;;;;41.17;12.10;;;;;;;;;;5065220;28;20040;-59
2021/04/04 06:38:07;;;;;;;;;;;;;;;;;;5067543;28;20041;-59
2021/04/04 06:40:39;;;;;;;39.83;12.90;;;;;;;;;;5064913;28;19924;-59
2021/04/04 06:43:08;;;;;;;44.28;14.55;;;;;;;;;;5069627;28;20098;-60
2021/04/04 06:45:59;;;;;;;45.28;13.63;;;;;;;;;;5065487;28;20114;-60
2021/04/04 06:48:48;;;;;;;42.15;15.35;;;;;;;;;;5069343;28;20090;-60
2021/04/04 06:51:44;;;;;;;40.03;10.80;;;;;;;;;;5068671;28;20082;-60
2021/04/04 06:54:29;;;;;;;45.25;15.15;;;;;;;;;;5052606;28;20128;-60
2021/04/04 06:57:13;;;;;;;41.40;13.27;;;;;;;;;;5064827;28;20071;-59
2021/04/04 06:59:58;;;;;;;38.33;13.52;;;;;;;;;;5060546;28;20044;-59
2021/04/04 07:02:30;;;;;;;35.88;13.60;;;;;;;;;;5066687;28;20071;-60
2021/04/04 07:04:59;;;;;;;41.25;14.05;;;;;;;;;;5064538;28;20109;-60
2021/04/04 07:07:44;;;;;;;49.47;13.70;;;;;;;;;;5058305;28;20446;-60
2021/04/04 07:10:25;;;;;;;35.92;11.88;;;;;;;;;;5065608;28;20162;-60
2021/04/04 07:13:08;;;;;;;46.00;13.65;;;;;;;;;;5061472;28;20574;-60
2021/04/04 07:15:37;;;;;;;37.67;13.68;;;;;;;;;;5060290;28;20122;-60
2021/04/04 07:18:22;;;;;;;47.90;13.15;;;;;;;;;;5065465;28;20044;-60
2021/04/04 07:20:51;;;;;;;34.63;11.90;;;;;;;;;;5068943;28;20130;-60
2021/04/04 07:23:29;;;;;;;39.47;12.43;;;;;;;;;;5063749;28;20106;-60
2021/04/04 07:25:55;;;;;;;;;;;;;;;;;;5056619;28;20067;-60
2021/04/04 07:28:38;;;;;;;51.33;13.50;;;;;;;;;;5069687;28;20331;-60
2021/04/04 07:31:09;;;;;;;42.35;12.57;;;;;;;;;;5058390;28;20086;-59
2021/04/04 07:34:00;;;;;;;37.50;12.23;;;;;;;;;;5060767;28;20045;-59
2021/04/04 07:36:31;;;;;;;36.38;12.57;;;;;;;;;;5047492;28;20129;-59
2021/04/04 07:39:16;;;;;;;46.22;12.32;;;;;;;;;;5065307;28;20036;-59
2021/04/04 07:42:00;;;;;;;58.33;12.85;;;;;;;;;;5067310;28;20094;-59
2021/04/04 07:44:41;;;;;;;35.63;12.15;;;;;;;;;;5070167;28;20056;-59
2021/04/04 07:47:32;;;;;;;48.30;13.52;;;;;;;;;;5064561;28;20060;-59
2021/04/04 07:50:13;;;;;;;39.20;12.50;;;;;;;;;;5044344;28;20423;-59
2021/04/04 07:52:43;;;;;;;36.22;12.57;;;;;;;;;;5070482;28;20040;-59
2021/04/04 07:55:25;;;;;;;46.95;13.50;;;;;;;;;;5060992;28;20041;-59
2021/04/04 07:57:56;;;;;;;41.33;11.80;;;;;;;;;;5064632;28;20450;-59
2021/04/04 08:00:22;;;;;;;35.10;11.75;;;;;;;;;;5064285;28;20071;-59
2021/04/04 08:03:16;;;;;;;35.42;10.85;;;;;;;;;;5061732;28;20040;-59
2021/04/04 08:05:44;;;;;;;33.83;12.13;;;;;;;;;;5061781;28;20531;-59
2021/04/04 08:08:11;;;;;;;33.72;9.48;;;;;;;;;;5063584;28;20123;-59
2021/04/04 08:10:57;;;;;;;26.35;10.77;;;;;;;;;;5066890;28;20127;-59
2021/04/04 08:13:53;;;;;;;35.85;9.65;;;;;;;;;;5064300;28;20608;-59
2021/04/04 08:16:28;;;;;;;31.02;9.70;;;;;;;;;;5045467;28;20060;-59
2021/04/04 08:18:55;;;;;;;31.73;9.68;;;;;;;;;;5065133;28;20148;-59
2021/04/04 08:21:23;;;;;;;27.38;9.23;;;;;;;;;;5060442;28;20033;-59
2021/04/04 08:23:54;;;;;;;29.50;9.90;;;;;;;;;;5057467;28;20102;-58
2021/04/04 08:26:25;;;;;;;37.30;8.98;;;;;;;;;;5059174;28;20472;-59
2021/04/04 08:28:59;;;;;;;34.33;9.90;;;;;;;;;;5058137;28;20057;-59
2021/04/04 08:31:32;;;;;;;34.45;8.55;;;;;;;;;;5060363;28;20497;-59
2021/04/04 08:34:10;;;;;;;42.72;9.35;;;;;;;;;;5064449;28;20519;-59
2021/04/04 08:36:38;;;;;;;34.30;8.98;;;;;;;;;;5064795;28;20055;-59
2021/04/04 08:39:05;;;;;;;33.40;8.45;;;;;;;;;;5064953;28;20033;-59
2021/04/04 08:41:33;;;;;;;34.00;9.02;;;;;;;;;;5068048;28;20213;-59
2021/04/04 08:44:01;;;;;;;31.25;7.47;;;;;;;;;;5061606;28;20415;-59
2021/04/04 08:46:43;;;;;;;31.85;8.75;;;;;;;;;;5060466;28;20135;-59
2021/04/04 08:49:09;;;;;;;36.40;8.10;;;;;;;;;;5065665;28;20139;-59
2021/04/04 08:51:44;;;;;;;28.35;8.18;;;;;;;;;;5061956;28;20044;-59
2021/04/04 08:54:18;;;;;;;26.30;7.35;;;;;;;;;;5060677;28;20126;-59
2021/04/04 08:56:45;;;;;;;29.95;8.05;;;;;;;;;;5060384;28;20079;-59
2021/04/04 08:59:12;;;;;;;;;;;;;;;;;;5070471;28;20064;-59
2021/04/04 09:01:39;;;;;;;38.83;8.60;;;;;;;;;;5064881;28;20026;-59
2021/04/04 09:04:08;;;;;;;24.92;7.43;;;;;;;;;;5039169;28;20151;-59
2021/04/04 09:06:38;;;;;;;22.42;6.75;;;;;;;;;;5068573;28;20176;-59
2021/04/04 09:09:25;;;;;;;30.67;7.95;;;;;;;;;;5070640;28;20040;-58
2021/04/04 09:11:53;;;;;;;35.42;7.32;;;;;;;;;;5066342;28;20792;-59
2021/04/04 09:14:20;;;;;;;29.52;7.28;;;;;;;;;;5064603;28;20041;-59
2021/04/04 09:16:52;;;;;;;22.95;6.18;;;;;;;;;;5060527;28;20040;-59
2021/04/04 09:19:29;;;;;;;28.90;6.43;;;;;;;;;;5059877;28;20498;-59
2021/04/04 09:21:56;;;;;;;24.75;7.70;;;;;;;;;;5065004;28;20906;-59
2021/04/04 09:24:22;;;;;;;;;;;;;;;;;;5066451;28;20056;-59
2021/04/04 09:26:49;;;;;;;29.05;6.55;;;;;;;;;;5065527;28;19924;-59
2021/04/04 09:29:15;;;;;;;29.95;6.00;;;;;;;;;;5030143;28;20049;-59
2021/04/04 09:31:42;;;;;;;21.73;5.85;;;;;;;;;;5043143;28;20037;-59
2021/04/04 09:34:11;;;;;;;26.85;6.03;;;;;;;;;;5044085;28;20045;-59
2021/04/04 09:36:41;;;;;;;27.65;6.45;;;;;;;;;;5042027;28;20491;-59
2021/04/04 09:39:09;;;;;;;25.95;6.38;;;;;;;;;;5043951;28;20072;-59
2021/04/04 09:41:35;;;;;;;29.00;7.18;;;;;;;;;;5045190;28;20119;-59
2021/04/04 09:44:06;;;;;;;28.90;6.20;;;;;;;;;;5046747;28;20037;-59
2021/04/04 09:46:32;;;;;;;32.13;6.13;;;;;;;;;;5045631;28;20044;-59
2021/04/04 09:48:58;;;;;;;25.77;6.18;;;;;;;;;;5048312;28;20045;-59
2021/04/04 09:51:24;;;;;;;21.80;6.10;;;;;;;;;;5043326;28;20095;-60
2021/04/04 09:53:52;;;;;;;23.13;6.05;;;;;;;;;;5046215;28;20102;-59
2021/04/04 09:56:19;;;;;;;25.02;6.22;;;;;;;;;;5048433;28;20087;-59
2021/04/04 09:58:46;;;;;;;24.75;6.13;;;;;;;;;;5045145;28;20481;-59
2021/04/04 10:01:17;;;;;;;28.02;6.30;;;;;;;;;;5045588;28;20073;-59
2021/04/04 10:04:05;;;;;;;25.88;6.00;;;;;;;;;;5032977;28;20045;-59
2021/04/04 10:06:32;;;;;;;;;;;;;;;;;;5049121;28;20072;-59
2021/04/04 10:08:59;;;;;;;21.80;6.18;;;;;;;;;;5046648;28;19921;-59
2021/04/04 10:11:26;;;;;;;22.75;6.07;;;;;;;;;;5043999;28;20045;-60
2021/04/04 10:14:05;;;;;;;24.60;5.60;;;;;;;;;;5044733;28;20573;-59
2021/04/04 10:16:31;;;;;;;26.63;6.45;;;;;;;;;;5044105;28;20436;-59
2021/04/04 10:18:58;;;;;;;19.60;5.38;;;;;;;;;;5040588;28;20049;-59
2021/04/04 10:21:24;;;;;;;27.35;5.68;;;;;;;;;;5045266;28;20041;-59
2021/04/04 10:23:50;;;;;;;23.88;5.45;;;;;;;;;;5044752;28;20140;-59
2021/04/04 10:26:20;;;;;;;20.17;5.18;;;;;;;;;;5046513;28;20500;-59
2021/04/04 10:28:48;;;;;;;21.25;5.82;;;;;;;;;;5039991;28;20107;-59
2021/04/04 10:31:15;;;;;;;25.42;5.40;;;;;;;;;;5042249;28;20040;-59
2021/04/04 10:33:42;;;;;;;27.60;6.00;;;;;;;;;;5040770;28;20049;-59
2021/04/04 10:36:24;;;;;;;26.52;5.88;;;;;;;;;;5046733;28;20045;-59
2021/04/04 10:38:50;;;;;;;;;;;;;;;;;;5045582;28;20070;-59
2021/04/04 10:41:26;;;;;;;21.55;4.82;;;;;;;;;;5040807;28;21690;-59
2021/04/04 10:43:53;;;;;;;20.20;5.60;;;;;;;;;;5030571;28;20049;-60
2021/04/04 10:46:23;;;;;;;23.55;4.90;;;;;;;;;;5023746;28;20116;-59
2021/04/04 10:48:49;;;;;;;18.73;4.72;;;;;;;;;;5043635;28;20033;-59
2021/04/04 10:51:17;;;;;;;20.20;4.65;;;;;;;;;;5044422;28;20508;-59
2021/04/04 10:53:43;;;;;;;20.50;5.00;;;;;;;;;;5045266;28;20042;-59
2021/04/04 10:56:11;;;;;;;16.63;4.03;;;;;;;;;;5044380;28;20041;-59
2021/04/04 10:58:38;;;;;;;28.60;5.10;;;;;;;;;;5043194;28;20045;-59
2021/04/04 11:01:05;;;;;;;19.17;4.60;;;;;;;;;;5043739;28;20044;-59
2021/04/04 11:03:32;;;;;;;18.52;4.72;;;;;;;;;;5041618;28;20079;-59
2021/04/04 11:05:58;;;;;;;20.33;3.50;;;;;;;;;;5041704;28;20044;-59
2021/04/04 11:08:24;;;;;;;20.73;4.55;;;;;;;;;;5046250;28;20124;-59
2021/04/04 11:10:51;;;;;;;23.02;4.50;;;;;;;;;;5047011;28;20049;-59
2021/04/04 11:13:19;;;;;;;22.58;4.72;;;;;;;;;;5045432;28;20495;-59
2021/04/04 11:15:58;;;;;;;27.48;4.88;;;;;;;;;;5043271;28;20497;-59
2021/04/04 11:18:40;;;;;;;24.98;4.60;;;;;;;;;;5044781;28;20126;-60
2021/04/04 11:21:26;;;;;;;22.65;4.28;;;;;;;;;;5042851;28;20102;-60
2021/04/04 11:23:53;;;;;;;25.67;4.88;;;;;;;;;;5045181;28;20095;-59
2021/04/04 11:26:37;;;;;;;22.88;4.07;;;;;;;;;;5044886;28;20047;-59
2021/04/04 11:29:09;;;;;;;13.18;3.40;;;;;;;;;;5066062;28;20504;-59
2021/04/04 11:31:39;;;;;;;21.63;4.05;;;;;;;;;;5060454;28;20536;-59
2021/04/04 11:34:22;;;;;;;12.07;3.20;;;;;;;;;;5057478;28;20140;-60
2021/04/04 11:36:48;;;;;;;12.95;3.53;;;;;;;;;;5059351;28;20115;-59
2021/04/04 11:39:15;;;;;;;16.52;3.60;;;;;;;;;;5058470;28;20059;-59
2021/04/04 11:41:49;;;;;;;18.75;2.90;;;;;;;;;;5059340;28;20116;-59
2021/04/04 11:44:20;;;;;;;19.25;3.47;;;;;;;;;;5066021;28;20482;-59
2021/04/04 11:46:56;;;;;;;17.33;3.28;;;;;;;;;;5064217;28;20048;-59
2021/04/04 11:49:37;;;;;;;16.07;3.00;;;;;;;;;;5060515;28;20575;-62
2021/04/04 11:52:10;;;;;;;14.07;3.50;;;;;;;;;;5063327;28;20106;-59
2021/04/04 11:54:49;;;;;;;17.88;3.15;;;;;;;;;;5059626;28;20052;-60
2021/04/04 11:57:21;;;;;;;16.80;3.67;;;;;;;;;;5062376;28;20052;-59
2021/04/04 11:59:49;;;;;;;14.15;2.83;;;;;;;;;;5062699;28;20052;-59
2021/04/04 12:02:16;;;;;;;19.02;3.22;;;;;;;;;;5055962;28;20048;-60
2021/04/04 12:04:46;;;;;;;18.27;3.33;;;;;;;;;;5060793;28;20423;-59
2021/04/04 12:07:16;;;;;;;20.30;3.45;;;;;;;;;;5059629;28;20045;-60
2021/04/04 12:09:44;;;;;;;8.35;2.53;;;;;;;;;;5062811;28;20430;-59
2021/04/04 12:12:11;;;;;;;10.23;2.08;;;;;;;;;;5062014;28;20049;-59
2021/04/04 12:14:53;;;;;;;13.30;2.45;;;;;;;;;;5060828;28;20048;-59
2021/04/04 12:17:20;;;;;;;13.63;2.92;;;;;;;;;;5047333;28;20151;-59
2021/04/04 12:19:46;;;;;;;;;;;;;;;;;;5064267;28;20463;-59
2021/04/04 12:22:13;;;;;;;17.17;2.28;;;;;;;;;;5064672;28;19924;-60
2021/04/04 12:24:45;;;;;;;11.10;2.30;;;;;;;;;;5064687;28;20033;-60
2021/04/04 12:27:16;;;;;;;9.25;2.58;;;;;;;;;;5053596;28;20385;-59
2021/04/04 12:29:42;;;;;;;19.30;3.03;;;;;;;;;;5066543;28;20041;-59
2021/04/04 12:32:09;;;;;;;12.63;2.65;;;;;;;;;;5067154;28;20110;-59
2021/04/04 12:34:39;;;;;;;11.80;2.53;;;;;;;;;;5067593;28;20044;-59
2021/04/04 12:37:15;;;;;;;18.55;2.75;;;;;;;;;;5071054;28;20036;-59
2021/04/04 12:39:49;;;;;;;12.27;2.58;;;;;;;;;;5067642;28;20045;-59
2021/04/04 12:42:18;;;;;;;14.73;2.90;;;;;;;;;;5066971;28;20037;-59
2021/04/04 12:44:46;;;;;;;11.20;2.38;;;;;;;;;;5070626;28;20110;-59
2021/04/04 12:47:14;;;;;;;12.13;3.28;;;;;;;;;;5067523;28;20056;-60
2021/04/04 12:49:42;;;;;;;10.38;2.55;;;;;;;;;;5067508;28;20037;-59
2021/04/04 12:52:09;;;;;;;14.10;3.13;;;;;;;;;;5063709;28;20587;-59
2021/04/04 12:54:35;;;;;;;13.20;3.08;;;;;;;;;;5068213;28;20056;-59
2021/04/04 12:57:02;;;;;;;14.85;2.70;;;;;;;;;;5068047;28;20119;-59
2021/04/04 12:59:28;;;;;;;13.87;3.10;;;;;;;;;;5060066;28;20150;-59
2021/04/04 13:01:55;;;;;;;18.35;2.60;;;;;;;;;;5067727;28;20399;-59
2021/04/04 13:04:22;;;;;;;23.13;3.28;;;;;;;;;;5069743;28;20040;-59
2021/04/04 13:06:49;;;;;;;16.45;2.75;;;;;;;;;;5059119;28;20052;-59
2021/04/04 13:09:15;;;;;;;15.50;2.83;;;;;;;;;;5071504;28;20044;-59
2021/04/04 13:11:43;;;;;;;14.10;3.40;;;;;;;;;;5068041;28;20036;-59
2021/04/04 13:14:22;;;;;;;27.17;4.00;;;;;;;;;;5066381;28;20036;-59
2021/04/04 13:16:55;;;;;;;22.88;3.70;;;;;;;;;;5071130;28;20095;-59
2021/04/04 13:19:22;;;;;;;19.88;3.38;;;;;;;;;;5062969;28;20083;-59
2021/04/04 13:21:48;;;;;;;20.75;3.50;;;;;;;;;;5064783;28;20061;-59
2021/04/04 13:24:15;;;;;;;25.67;4.03;;;;;;;;;;5059397;28;20047;-59
2021/04/04 13:26:48;;;;;;;19.77;3.75;;;;;;;;;;5064926;28;20072;-59
2021/04/04 13:29:18;;;;;;;32.72;4.25;;;;;;;;;;5070803;28;20052;-59
2021/04/04 13:31:51;;;;;;;17.08;3.72;;;;;;;;;;5065073;28;20072;-59
2021/04/04 13:34:22;;;;;;;22.25;4.22;;;;;;;;;;5064473;28;20053;-59
2021/04/04 13:36:48;;;;;;;26.95;4.60;;;;;;;;;;5067709;28;20504;-59
2021/04/04 13:39:21;;;;;;;23.77;4.63;;;;;;;;;;5062290;28;20408;-59
2021/04/04 13:41:49;;;;;;;26.85;4.35;;;;;;;;;;5063791;28;20526;-59
2021/04/04 13:44:16;;;;;;;22.00;4.65;;;;;;;;;;5063234;28;20396;-59
2021/04/04 13:46:48;;;;;;;26.75;4.15;;;;;;;;;;5066040;28;20060;-59
2021/04/04 13:49:14;;;;;;;30.17;4.45;;;;;;;;;;5069192;28;20043;-59
2021/04/04 13:51:42;;;;;;;26.33;4.47;;;;;;;;;;5064305;28;20040;-59
2021/04/04 13:54:13;;;;;;;29.73;5.00;;;;;;;;;;5061328;28;20040;-59
2021/04/04 13:56:59;;;;;;;22.35;4.43;;;;;;;;;;5061902;28;20049;-59
2021/04/04 13:59:32;;;;;;;18.98;3.35;;;;;;;;;;5053042;28;20037;-59
2021/04/04 14:02:06;;;;;;;17.50;3.75;;;;;;;;;;5067046;28;20044;-59
2021/04/04 14:04:33;;;;;;;21.83;4.97;;;;;;;;;;5065793;28;20063;-59
2021/04/04 14:07:21;;;;;;;19.63;3.90;;;;;;;;;;5064082;28;20056;-60
2021/04/04 14:09:48;;;;;;;12.57;3.13;;;;;;;;;;5061955;28;20045;-59
2021/04/04 14:12:15;;;;;;;17.45;3.22;;;;;;;;;;5067754;28;20048;-59
2021/04/04 14:14:44;;;;;;;19.92;3.28;;;;;;;;;;5065798;28;20096;-59
2021/04/04 14:17:10;;;;;;;21.98;3.35;;;;;;;;;;5064855;28;20508;-59
2021/04/04 14:19:37;;;;;;;16.52;3.45;;;;;;;;;;5061533;28;20090;-59
2021/04/04 14:22:04;;;;;;;14.77;3.17;;;;;;;;;;5061272;28;20040;-59
2021/04/04 14:24:31;;;;;;;14.77;2.92;;;;;;;;;;5069284;28;20074;-59
2021/04/04 14:27:01;;;;;;;18.00;4.03;;;;;;;;;;5064614;28;20073;-59
2021/04/04 14:29:27;;;;;;;20.42;3.78;;;;;;;;;;5064491;28;20098;-59
2021/04/04 14:31:54;;;;;;;14.37;2.80;;;;;;;;;;5065144;28;20055;-59
2021/04/04 14:34:20;;;;;;;18.00;3.97;;;;;;;;;;5069062;28;20098;-59
2021/04/04 14:36:47;;;;;;;16.83;2.88;;;;;;;;;;5066396;28;20056;-59
2021/04/04 14:39:14;;;;;;;15.90;2.67;;;;;;;;;;5061018;28;20052;-59
2021/04/04 14:41:40;;;;;;;20.80;2.90;;;;;;;;;;5046585;28;20399;-59
2021/04/04 14:46:46;;;;;;;16.50;3.33;;;;;;;;;;5060485;28;20045;-59
2021/04/04 14:49:15;;;;;;;13.30;3.10;;;;;;;;;;5065082;28;20052;-59
2021/04/04 14:51:41;;;;;;;23.42;3.45;;;;;;;;;;5065950;28;20074;-59